sensor_id;sensor_type;location;lat;lon;timestamp;P1;durP1;ratioP1;P2;durP2;ratioP2
19364;SDS011;9818;48.382;10.850;2024-01-15T00:01:31;67.57;;;60.37;;
19364;SDS011;9818;48.382;10.850;2024-01-15T00:04:02;63.57;;;56.70;;
19364;SDS011;9818;48.382;10.850;2024-01-15T00:06:31;59.80;;;53.40;;
19364;SDS011;9818;48.382;10.850;2024-01-15T00:09:00;57.50;;;51.00;;
19364;SDS011;9818;48.382;10.850;2024-01-15T00:11:28;55.33;;;49.40;;
19364;SDS011;9818;48.382;10.850;2024-01-15T00:13:57;51.70;;;46.07;;
19364;SDS011;9818;48.382;10.850;2024-01-15T00:16:26;48.87;;;43.57;;
19364;SDS011;9818;48.382;10.850;2024-01-15T00:18:54;46.97;;;41.83;;
19364;SDS011;9818;48.382;10.850;2024-01-15T00:21:26;46.57;;;40.77;;
19364;SDS011;9818;48.382;10.850;2024-01-15T00:23:54;44.63;;;37.70;;
19364;SDS011;9818;48.382;10.850;2024-01-15T00:26:23;40.70;;;36.20;;
19364;SDS011;9818;48.382;10.850;2024-01-15T00:28:52;38.83;;;34.37;;
19364;SDS011;9818;48.382;10.850;2024-01-15T00:31:20;37.77;;;31.70;;
19364;SDS011;9818;48.382;10.850;2024-01-15T00:33:49;35.00;;;31.03;;
19364;SDS011;9818;48.382;10.850;2024-01-15T00:36:18;36.67;;;29.33;;
19364;SDS011;9818;48.382;10.850;2024-01-15T00:38:49;32.60;;;27.60;;
19364;SDS011;9818;48.382;10.850;2024-01-15T00:41:18;29.80;;;26.60;;
19364;SDS011;9818;48.382;10.850;2024-01-15T00:43:47;29.40;;;26.40;;
19364;SDS011;9818;48.382;10.850;2024-01-15T00:46:16;26.13;;;23.40;;
19364;SDS011;9818;48.382;10.850;2024-01-15T00:48:45;26.57;;;23.17;;
19364;SDS011;9818;48.382;10.850;2024-01-15T00:51:13;24.83;;;21.93;;
19364;SDS011;9818;48.382;10.850;2024-01-15T00:53:42;24.63;;;22.00;;
19364;SDS011;9818;48.382;10.850;2024-01-15T00:56:13;22.47;;;20.03;;
19364;SDS011;9818;48.382;10.850;2024-01-15T00:58:42;25.80;;;19.27;;
19364;SDS011;9818;48.382;10.850;2024-01-15T01:01:11;20.97;;;18.27;;
19364;SDS011;9818;48.382;10.850;2024-01-15T01:03:39;21.87;;;17.67;;
19364;SDS011;9818;48.382;10.850;2024-01-15T01:06:08;19.60;;;17.53;;
19364;SDS011;9818;48.382;10.850;2024-01-15T01:08:37;19.50;;;15.70;;
19364;SDS011;9818;48.382;10.850;2024-01-15T01:11:07;17.40;;;15.40;;
19364;SDS011;9818;48.382;10.850;2024-01-15T01:13:38;18.50;;;15.37;;
19364;SDS011;9818;48.382;10.850;2024-01-15T01:16:07;15.73;;;14.00;;
19364;SDS011;9818;48.382;10.850;2024-01-15T01:18:35;15.07;;;13.57;;
19364;SDS011;9818;48.382;10.850;2024-01-15T01:21:04;14.80;;;12.77;;
19364;SDS011;9818;48.382;10.850;2024-01-15T01:23:33;14.83;;;12.23;;
19364;SDS011;9818;48.382;10.850;2024-01-15T01:26:01;15.73;;;12.70;;
19364;SDS011;9818;48.382;10.850;2024-01-15T01:28:30;13.63;;;12.07;;
19364;SDS011;9818;48.382;10.850;2024-01-15T01:31:02;14.03;;;11.20;;
19364;SDS011;9818;48.382;10.850;2024-01-15T01:33:31;16.07;;;11.40;;
19364;SDS011;9818;48.382;10.850;2024-01-15T01:35:59;13.83;;;10.23;;
19364;SDS011;9818;48.382;10.850;2024-01-15T01:38:28;13.43;;;10.20;;
19364;SDS011;9818;48.382;10.850;2024-01-15T01:40:57;10.50;;;9.27;;
19364;SDS011;9818;48.382;10.850;2024-01-15T01:43:25;11.47;;;9.83;;
19364;SDS011;9818;48.382;10.850;2024-01-15T01:45:54;10.97;;;9.10;;
19364;SDS011;9818;48.382;10.850;2024-01-15T01:48:27;10.47;;;8.90;;
19364;SDS011;9818;48.382;10.850;2024-01-15T01:50:57;11.57;;;8.80;;
19364;SDS011;9818;48.382;10.850;2024-01-15T01:53:27;9.87;;;8.10;;
19364;SDS011;9818;48.382;10.850;2024-01-15T01:55:57;12.63;;;8.23;;
19364;SDS011;9818;48.382;10.850;2024-01-15T01:58:27;10.77;;;7.73;;
19364;SDS011;9818;48.382;10.850;2024-01-15T02:00:57;9.23;;;7.73;;
19364;SDS011;9818;48.382;10.850;2024-01-15T02:03:30;9.77;;;7.80;;
19364;SDS011;9818;48.382;10.850;2024-01-15T02:05:58;7.83;;;6.63;;
19364;SDS011;9818;48.382;10.850;2024-01-15T02:08:28;7.77;;;6.70;;
19364;SDS011;9818;48.382;10.850;2024-01-15T02:10:58;7.97;;;6.83;;
19364;SDS011;9818;48.382;10.850;2024-01-15T02:13:26;7.37;;;6.20;;
19364;SDS011;9818;48.382;10.850;2024-01-15T02:15:55;7.90;;;6.63;;
19364;SDS011;9818;48.382;10.850;2024-01-15T02:18:24;10.07;;;6.40;;
19364;SDS011;9818;48.382;10.850;2024-01-15T02:20:55;7.23;;;6.20;;
19364;SDS011;9818;48.382;10.850;2024-01-15T02:23:26;6.30;;;5.67;;
19364;SDS011;9818;48.382;10.850;2024-01-15T02:25:55;8.27;;;6.17;;
19364;SDS011;9818;48.382;10.850;2024-01-15T02:28:24;8.27;;;5.60;;
19364;SDS011;9818;48.382;10.850;2024-01-15T02:30:52;6.03;;;5.00;;
19364;SDS011;9818;48.382;10.850;2024-01-15T02:33:21;9.37;;;5.57;;
19364;SDS011;9818;48.382;10.850;2024-01-15T02:35:50;5.03;;;4.53;;
19364;SDS011;9818;48.382;10.850;2024-01-15T02:38:19;7.90;;;5.20;;
19364;SDS011;9818;48.382;10.850;2024-01-15T02:40:50;6.93;;;4.90;;
19364;SDS011;9818;48.382;10.850;2024-01-15T02:43:19;5.53;;;4.67;;
19364;SDS011;9818;48.382;10.850;2024-01-15T02:45:47;7.27;;;5.23;;
19364;SDS011;9818;48.382;10.850;2024-01-15T02:48:16;6.37;;;4.20;;
19364;SDS011;9818;48.382;10.850;2024-01-15T02:50:45;6.13;;;4.60;;
19364;SDS011;9818;48.382;10.850;2024-01-15T02:53:13;6.23;;;4.57;;
19364;SDS011;9818;48.382;10.850;2024-01-15T02:55:42;5.27;;;3.90;;
19364;SDS011;9818;48.382;10.850;2024-01-15T02:58:14;6.30;;;4.50;;
19364;SDS011;9818;48.382;10.850;2024-01-15T03:00:42;5.03;;;4.07;;
19364;SDS011;9818;48.382;10.850;2024-01-15T03:03:11;4.17;;;3.77;;
19364;SDS011;9818;48.382;10.850;2024-01-15T03:05:40;4.80;;;3.63;;
19364;SDS011;9818;48.382;10.850;2024-01-15T03:08:09;5.07;;;3.70;;
19364;SDS011;9818;48.382;10.850;2024-01-15T03:10:37;5.20;;;3.83;;
19364;SDS011;9818;48.382;10.850;2024-01-15T03:13:06;4.83;;;3.97;;
19364;SDS011;9818;48.382;10.850;2024-01-15T03:15:37;4.10;;;3.67;;
19364;SDS011;9818;48.382;10.850;2024-01-15T03:18:06;5.17;;;3.37;;
19364;SDS011;9818;48.382;10.850;2024-01-15T03:20:35;3.93;;;3.40;;
19364;SDS011;9818;48.382;10.850;2024-01-15T03:23:03;4.13;;;3.43;;
19364;SDS011;9818;48.382;10.850;2024-01-15T03:25:32;4.83;;;3.37;;
19364;SDS011;9818;48.382;10.850;2024-01-15T03:28:01;4.50;;;3.47;;
19364;SDS011;9818;48.382;10.850;2024-01-15T03:30:29;4.87;;;3.10;;
19364;SDS011;9818;48.382;10.850;2024-01-15T03:33:01;5.53;;;3.20;;
19364;SDS011;9818;48.382;10.850;2024-01-15T03:35:29;6.27;;;3.97;;
19364;SDS011;9818;48.382;10.850;2024-01-15T03:37:58;3.77;;;2.80;;
19364;SDS011;9818;48.382;10.850;2024-01-15T03:40:27;7.90;;;3.50;;
19364;SDS011;9818;48.382;10.850;2024-01-15T03:42:55;4.90;;;3.07;;
19364;SDS011;9818;48.382;10.850;2024-01-15T03:45:24;3.97;;;3.07;;
19364;SDS011;9818;48.382;10.850;2024-01-15T03:47:53;3.73;;;2.90;;
19364;SDS011;9818;48.382;10.850;2024-01-15T03:50:24;5.27;;;3.33;;
19364;SDS011;9818;48.382;10.850;2024-01-15T03:52:53;3.97;;;3.10;;
19364;SDS011;9818;48.382;10.850;2024-01-15T03:55:22;7.57;;;3.20;;
19364;SDS011;9818;48.382;10.850;2024-01-15T03:57:50;4.33;;;3.33;;
19364;SDS011;9818;48.382;10.850;2024-01-15T04:00:19;3.87;;;3.17;;
19364;SDS011;9818;48.382;10.850;2024-01-15T04:02:48;4.40;;;3.50;;
19364;SDS011;9818;48.382;10.850;2024-01-15T04:05:16;3.97;;;3.03;;
19364;SDS011;9818;48.382;10.850;2024-01-15T04:07:48;5.60;;;3.23;;
19364;SDS011;9818;48.382;10.850;2024-01-15T04:10:16;4.50;;;3.23;;
19364;SDS011;9818;48.382;10.850;2024-01-15T04:12:45;4.00;;;3.10;;
19364;SDS011;9818;48.382;10.850;2024-01-15T04:15:14;4.27;;;2.83;;
19364;SDS011;9818;48.382;10.850;2024-01-15T04:17:43;3.77;;;2.97;;
19364;SDS011;9818;48.382;10.850;2024-01-15T04:20:12;3.67;;;3.13;;
19364;SDS011;9818;48.382;10.850;2024-01-15T04:22:41;3.67;;;3.20;;
19364;SDS011;9818;48.382;10.850;2024-01-15T04:25:12;3.77;;;2.80;;
19364;SDS011;9818;48.382;10.850;2024-01-15T04:27:41;3.40;;;2.93;;
19364;SDS011;9818;48.382;10.850;2024-01-15T04:30:10;2.97;;;2.67;;
19364;SDS011;9818;48.382;10.850;2024-01-15T04:32:39;3.20;;;2.90;;
19364;SDS011;9818;48.382;10.850;2024-01-15T04:35:07;3.70;;;2.93;;
19364;SDS011;9818;48.382;10.850;2024-01-15T04:37:37;3.20;;;2.73;;
19364;SDS011;9818;48.382;10.850;2024-01-15T04:40:07;3.23;;;2.77;;
19364;SDS011;9818;48.382;10.850;2024-01-15T04:42:39;3.23;;;2.90;;
19364;SDS011;9818;48.382;10.850;2024-01-15T04:45:10;2.83;;;2.50;;
19364;SDS011;9818;48.382;10.850;2024-01-15T04:47:39;3.17;;;2.70;;
19364;SDS011;9818;48.382;10.850;2024-01-15T04:50:08;4.23;;;2.80;;
19364;SDS011;9818;48.382;10.850;2024-01-15T04:52:38;3.50;;;2.67;;
19364;SDS011;9818;48.382;10.850;2024-01-15T04:55:07;2.90;;;2.50;;
19364;SDS011;9818;48.382;10.850;2024-01-15T04:57:36;2.90;;;2.60;;
19364;SDS011;9818;48.382;10.850;2024-01-15T05:00:08;2.77;;;2.57;;
19364;SDS011;9818;48.382;10.850;2024-01-15T05:02:38;3.47;;;2.70;;
19364;SDS011;9818;48.382;10.850;2024-01-15T05:05:06;3.87;;;2.70;;
19364;SDS011;9818;48.382;10.850;2024-01-15T05:07:35;2.77;;;2.43;;
19364;SDS011;9818;48.382;10.850;2024-01-15T05:10:05;3.13;;;2.60;;
19364;SDS011;9818;48.382;10.850;2024-01-15T05:12:35;2.20;;;2.00;;
19364;SDS011;9818;48.382;10.850;2024-01-15T05:15:04;3.47;;;2.63;;
19364;SDS011;9818;48.382;10.850;2024-01-15T05:17:36;3.00;;;2.43;;
19364;SDS011;9818;48.382;10.850;2024-01-15T05:20:05;2.90;;;2.60;;
19364;SDS011;9818;48.382;10.850;2024-01-15T05:22:34;2.40;;;2.20;;
19364;SDS011;9818;48.382;10.850;2024-01-15T05:25:03;2.53;;;2.30;;
19364;SDS011;9818;48.382;10.850;2024-01-15T05:27:33;3.00;;;2.47;;
19364;SDS011;9818;48.382;10.850;2024-01-15T05:30:01;3.47;;;2.50;;
19364;SDS011;9818;48.382;10.850;2024-01-15T05:32:33;3.27;;;2.30;;
19364;SDS011;9818;48.382;10.850;2024-01-15T05:35:02;2.77;;;2.30;;
19364;SDS011;9818;48.382;10.850;2024-01-15T05:37:31;2.80;;;2.50;;
19364;SDS011;9818;48.382;10.850;2024-01-15T05:40:00;2.63;;;2.43;;
19364;SDS011;9818;48.382;10.850;2024-01-15T05:42:29;2.50;;;2.27;;
19364;SDS011;9818;48.382;10.850;2024-01-15T05:44:58;2.63;;;2.30;;
19364;SDS011;9818;48.382;10.850;2024-01-15T05:47:28;2.47;;;2.27;;
19364;SDS011;9818;48.382;10.850;2024-01-15T05:50:00;2.83;;;2.20;;
19364;SDS011;9818;48.382;10.850;2024-01-15T05:52:29;2.30;;;2.10;;
19364;SDS011;9818;48.382;10.850;2024-01-15T05:54:58;2.50;;;2.10;;
19364;SDS011;9818;48.382;10.850;2024-01-15T05:57:27;2.17;;;2.00;;
19364;SDS011;9818;48.382;10.850;2024-01-15T05:59:56;2.30;;;2.10;;
19364;SDS011;9818;48.382;10.850;2024-01-15T06:02:24;2.57;;;2.20;;
19364;SDS011;9818;48.382;10.850;2024-01-15T06:04:53;2.60;;;2.40;;
19364;SDS011;9818;48.382;10.850;2024-01-15T06:07:25;2.30;;;2.10;;
19364;SDS011;9818;48.382;10.850;2024-01-15T06:09:53;2.43;;;2.00;;
19364;SDS011;9818;48.382;10.850;2024-01-15T06:12:22;2.60;;;1.90;;
19364;SDS011;9818;48.382;10.850;2024-01-15T06:14:53;2.93;;;2.10;;
19364;SDS011;9818;48.382;10.850;2024-01-15T06:17:21;2.07;;;1.87;;
19364;SDS011;9818;48.382;10.850;2024-01-15T06:19:50;2.20;;;2.00;;
19364;SDS011;9818;48.382;10.850;2024-01-15T06:22:19;2.20;;;2.00;;
19364;SDS011;9818;48.382;10.850;2024-01-15T06:24:50;4.00;;;2.27;;
19364;SDS011;9818;48.382;10.850;2024-01-15T06:27:19;2.70;;;2.30;;
19364;SDS011;9818;48.382;10.850;2024-01-15T06:29:47;2.87;;;2.17;;
19364;SDS011;9818;48.382;10.850;2024-01-15T06:32:16;2.33;;;1.90;;
19364;SDS011;9818;48.382;10.850;2024-01-15T06:34:45;3.23;;;1.83;;
19364;SDS011;9818;48.382;10.850;2024-01-15T06:37:13;3.23;;;2.00;;
19364;SDS011;9818;48.382;10.850;2024-01-15T06:39:44;1.97;;;1.80;;
19364;SDS011;9818;48.382;10.850;2024-01-15T06:42:15;3.13;;;2.00;;
19364;SDS011;9818;48.382;10.850;2024-01-15T06:44:44;2.20;;;2.00;;
19364;SDS011;9818;48.382;10.850;2024-01-15T06:47:12;2.30;;;2.10;;
19364;SDS011;9818;48.382;10.850;2024-01-15T06:49:42;2.73;;;2.10;;
19364;SDS011;9818;48.382;10.850;2024-01-15T06:52:11;2.37;;;1.90;;
19364;SDS011;9818;48.382;10.850;2024-01-15T06:54:40;2.77;;;1.70;;
19364;SDS011;9818;48.382;10.850;2024-01-15T06:57:08;2.13;;;1.93;;
19364;SDS011;9818;48.382;10.850;2024-01-15T06:59:40;2.10;;;1.90;;
19364;SDS011;9818;48.382;10.850;2024-01-15T07:02:08;2.23;;;1.80;;
19364;SDS011;9818;48.382;10.850;2024-01-15T07:04:37;1.80;;;1.70;;
19364;SDS011;9818;48.382;10.850;2024-01-15T07:07:06;2.17;;;1.97;;
19364;SDS011;9818;48.382;10.850;2024-01-15T07:09:35;1.97;;;1.70;;
19364;SDS011;9818;48.382;10.850;2024-01-15T07:12:04;1.93;;;1.70;;
19364;SDS011;9818;48.382;10.850;2024-01-15T07:14:33;3.50;;;2.10;;
19364;SDS011;9818;48.382;10.850;2024-01-15T07:17:04;2.10;;;1.90;;
19364;SDS011;9818;48.382;10.850;2024-01-15T07:19:33;2.07;;;1.77;;
19364;SDS011;9818;48.382;10.850;2024-01-15T07:22:01;2.23;;;1.70;;
19364;SDS011;9818;48.382;10.850;2024-01-15T07:24:30;2.60;;;1.80;;
19364;SDS011;9818;48.382;10.850;2024-01-15T07:26:59;1.70;;;1.57;;
19364;SDS011;9818;48.382;10.850;2024-01-15T07:29:29;1.83;;;1.60;;
19364;SDS011;9818;48.382;10.850;2024-01-15T07:31:59;2.03;;;1.70;;
19364;SDS011;9818;48.382;10.850;2024-01-15T07:34:30;2.13;;;1.83;;
19364;SDS011;9818;48.382;10.850;2024-01-15T07:36:59;1.60;;;1.50;;
19364;SDS011;9818;48.382;10.850;2024-01-15T07:39:27;2.13;;;1.70;;
19364;SDS011;9818;48.382;10.850;2024-01-15T07:41:56;1.90;;;1.60;;
19364;SDS011;9818;48.382;10.850;2024-01-15T07:44:25;1.93;;;1.73;;
19364;SDS011;9818;48.382;10.850;2024-01-15T07:46:53;1.90;;;1.60;;
19364;SDS011;9818;48.382;10.850;2024-01-15T07:49:22;1.70;;;1.50;;
19364;SDS011;9818;48.382;10.850;2024-01-15T07:51:54;1.53;;;1.43;;
19364;SDS011;9818;48.382;10.850;2024-01-15T07:54:22;1.83;;;1.67;;
19364;SDS011;9818;48.382;10.850;2024-01-15T07:56:54;1.93;;;1.57;;
19364;SDS011;9818;48.382;10.850;2024-01-15T07:59:24;1.70;;;1.60;;
19364;SDS011;9818;48.382;10.850;2024-01-15T08:01:52;2.03;;;1.53;;
19364;SDS011;9818;48.382;10.850;2024-01-15T08:04:21;1.77;;;1.60;;
19364;SDS011;9818;48.382;10.850;2024-01-15T08:06:50;1.80;;;1.70;;
19364;SDS011;9818;48.382;10.850;2024-01-15T08:09:21;1.73;;;1.63;;
19364;SDS011;9818;48.382;10.850;2024-01-15T08:11:50;1.70;;;1.60;;
19364;SDS011;9818;48.382;10.850;2024-01-15T08:14:19;2.07;;;1.40;;
19364;SDS011;9818;48.382;10.850;2024-01-15T08:16:47;1.73;;;1.60;;
19364;SDS011;9818;48.382;10.850;2024-01-15T08:19:16;1.57;;;1.47;;
19364;SDS011;9818;48.382;10.850;2024-01-15T08:21:45;1.67;;;1.57;;
19364;SDS011;9818;48.382;10.850;2024-01-15T08:24:14;1.50;;;1.40;;
19364;SDS011;9818;48.382;10.850;2024-01-15T08:26:45;1.57;;;1.47;;
19364;SDS011;9818;48.382;10.850;2024-01-15T08:29:17;2.00;;;1.60;;
19364;SDS011;9818;48.382;10.850;2024-01-15T08:31:46;1.77;;;1.47;;
19364;SDS011;9818;48.382;10.850;2024-01-15T08:34:15;1.70;;;1.60;;
19364;SDS011;9818;48.382;10.850;2024-01-15T08:36:44;1.53;;;1.43;;
19364;SDS011;9818;48.382;10.850;2024-01-15T08:39:13;1.60;;;1.50;;
19364;SDS011;9818;48.382;10.850;2024-01-15T08:41:42;1.50;;;1.40;;
19364;SDS011;9818;48.382;10.850;2024-01-15T08:44:14;1.67;;;1.50;;
19364;SDS011;9818;48.382;10.850;2024-01-15T08:46:43;1.87;;;1.40;;
19364;SDS011;9818;48.382;10.850;2024-01-15T08:49:11;1.30;;;1.20;;
19364;SDS011;9818;48.382;10.850;2024-01-15T08:51:40;2.20;;;1.60;;
19364;SDS011;9818;48.382;10.850;2024-01-15T08:54:09;1.37;;;1.27;;
19364;SDS011;9818;48.382;10.850;2024-01-15T08:56:37;1.47;;;1.37;;
19364;SDS011;9818;48.382;10.850;2024-01-15T08:59:06;1.87;;;1.40;;
19364;SDS011;9818;48.382;10.850;2024-01-15T09:01:40;1.80;;;1.57;;
19364;SDS011;9818;48.382;10.850;2024-01-15T09:04:09;1.60;;;1.50;;
19364;SDS011;9818;48.382;10.850;2024-01-15T09:06:37;1.70;;;1.40;;
19364;SDS011;9818;48.382;10.850;2024-01-15T09:09:06;1.43;;;1.33;;
19364;SDS011;9818;48.382;10.850;2024-01-15T09:11:35;1.40;;;1.30;;
19364;SDS011;9818;48.382;10.850;2024-01-15T09:14:04;2.40;;;1.40;;
19364;SDS011;9818;48.382;10.850;2024-01-15T09:16:33;3.03;;;1.60;;
19364;SDS011;9818;48.382;10.850;2024-01-15T09:19:05;2.17;;;1.40;;
19364;SDS011;9818;48.382;10.850;2024-01-15T09:21:33;1.67;;;1.40;;
19364;SDS011;9818;48.382;10.850;2024-01-15T09:24:02;1.60;;;1.50;;
19364;SDS011;9818;48.382;10.850;2024-01-15T09:26:31;3.37;;;1.60;;
19364;SDS011;9818;48.382;10.850;2024-01-15T09:29:00;1.70;;;1.40;;
19364;SDS011;9818;48.382;10.850;2024-01-15T09:31:29;2.63;;;1.50;;
19364;SDS011;9818;48.382;10.850;2024-01-15T09:33:57;2.00;;;1.70;;
19364;SDS011;9818;48.382;10.850;2024-01-15T09:36:30;1.77;;;1.30;;
19364;SDS011;9818;48.382;10.850;2024-01-15T09:38:58;2.33;;;1.27;;
19364;SDS011;9818;48.382;10.850;2024-01-15T09:41:27;1.60;;;1.50;;
19364;SDS011;9818;48.382;10.850;2024-01-15T09:43:56;2.27;;;1.43;;
19364;SDS011;9818;48.382;10.850;2024-01-15T09:46:25;2.73;;;1.40;;
19364;SDS011;9818;48.382;10.850;2024-01-15T09:48:53;1.57;;;1.47;;
19364;SDS011;9818;48.382;10.850;2024-01-15T09:51:22;1.50;;;1.40;;
19364;SDS011;9818;48.382;10.850;2024-01-15T09:53:55;2.30;;;1.60;;
19364;SDS011;9818;48.382;10.850;2024-01-15T09:56:24;2.30;;;1.33;;
19364;SDS011;9818;48.382;10.850;2024-01-15T09:58:53;2.77;;;1.40;;
19364;SDS011;9818;48.382;10.850;2024-01-15T10:01:22;2.40;;;1.30;;
19364;SDS011;9818;48.382;10.850;2024-01-15T10:03:51;1.67;;;1.50;;
19364;SDS011;9818;48.382;10.850;2024-01-15T10:06:21;1.23;;;1.13;;
19364;SDS011;9818;48.382;10.850;2024-01-15T10:08:50;2.60;;;1.60;;
19364;SDS011;9818;48.382;10.850;2024-01-15T10:11:22;1.80;;;1.30;;
19364;SDS011;9818;48.382;10.850;2024-01-15T10:13:51;2.10;;;1.40;;
19364;SDS011;9818;48.382;10.850;2024-01-15T10:16:22;2.10;;;1.40;;
19364;SDS011;9818;48.382;10.850;2024-01-15T10:18:51;2.27;;;1.37;;
19364;SDS011;9818;48.382;10.850;2024-01-15T10:21:19;2.50;;;1.50;;
19364;SDS011;9818;48.382;10.850;2024-01-15T10:23:48;1.30;;;1.20;;
19364;SDS011;9818;48.382;10.850;2024-01-15T10:26:17;1.43;;;1.20;;
19364;SDS011;9818;48.382;10.850;2024-01-15T10:28:49;1.60;;;1.20;;
19364;SDS011;9818;48.382;10.850;2024-01-15T10:31:19;2.87;;;1.17;;
19364;SDS011;9818;48.382;10.850;2024-01-15T10:33:48;2.00;;;1.60;;
19364;SDS011;9818;48.382;10.850;2024-01-15T10:36:16;1.77;;;1.20;;
19364;SDS011;9818;48.382;10.850;2024-01-15T10:38:46;1.97;;;1.23;;
19364;SDS011;9818;48.382;10.850;2024-01-15T10:41:15;1.57;;;1.30;;
19364;SDS011;9818;48.382;10.850;2024-01-15T10:43:43;1.37;;;1.23;;
19364;SDS011;9818;48.382;10.850;2024-01-15T10:46:15;1.30;;;1.20;;
19364;SDS011;9818;48.382;10.850;2024-01-15T10:48:44;1.50;;;1.40;;
19364;SDS011;9818;48.382;10.850;2024-01-15T10:51:12;2.10;;;1.27;;
19364;SDS011;9818;48.382;10.850;2024-01-15T10:53:42;1.50;;;1.27;;
19364;SDS011;9818;48.382;10.850;2024-01-15T10:56:11;2.07;;;1.20;;
19364;SDS011;9818;48.382;10.850;2024-01-15T10:58:39;2.30;;;1.33;;
19364;SDS011;9818;48.382;10.850;2024-01-15T11:01:08;2.63;;;1.20;;
19364;SDS011;9818;48.382;10.850;2024-01-15T11:03:40;1.93;;;1.20;;
19364;SDS011;9818;48.382;10.850;2024-01-15T11:06:15;2.57;;;1.60;;
19364;SDS011;9818;48.382;10.850;2024-01-15T11:08:45;3.37;;;1.40;;
19364;SDS011;9818;48.382;10.850;2024-01-15T11:11:16;4.23;;;1.37;;
19364;SDS011;9818;48.382;10.850;2024-01-15T11:13:46;1.50;;;1.20;;
19364;SDS011;9818;48.382;10.850;2024-01-15T11:16:16;2.50;;;1.50;;
19364;SDS011;9818;48.382;10.850;2024-01-15T11:21:33;1.80;;;1.30;;
19364;SDS011;9818;48.382;10.850;2024-01-15T11:24:10;1.17;;;1.07;;
19364;SDS011;9818;48.382;10.850;2024-01-15T11:26:59;1.83;;;1.37;;
19364;SDS011;9818;48.382;10.850;2024-01-15T11:29:31;3.47;;;1.20;;
19364;SDS011;9818;48.382;10.850;2024-01-15T11:32:01;1.97;;;1.20;;
19364;SDS011;9818;48.382;10.850;2024-01-15T11:37:27;1.60;;;1.30;;
19364;SDS011;9818;48.382;10.850;2024-01-15T11:40:00;2.53;;;1.40;;
19364;SDS011;9818;48.382;10.850;2024-01-15T11:42:35;3.47;;;1.50;;
19364;SDS011;9818;48.382;10.850;2024-01-15T11:45:04;2.23;;;1.70;;
19364;SDS011;9818;48.382;10.850;2024-01-15T11:47:40;1.47;;;1.20;;
19364;SDS011;9818;48.382;10.850;2024-01-15T11:50:34;2.70;;;1.50;;
19364;SDS011;9818;48.382;10.850;2024-01-15T11:53:03;2.17;;;1.60;;
19364;SDS011;9818;48.382;10.850;2024-01-15T11:55:41;5.20;;;1.60;;
19364;SDS011;9818;48.382;10.850;2024-01-15T11:58:14;3.97;;;1.50;;
19364;SDS011;9818;48.382;10.850;2024-01-15T12:00:44;3.07;;;1.80;;
19364;SDS011;9818;48.382;10.850;2024-01-15T12:03:14;3.00;;;1.50;;
19364;SDS011;9818;48.382;10.850;2024-01-15T12:05:46;4.63;;;1.47;;
19364;SDS011;9818;48.382;10.850;2024-01-15T12:08:15;2.77;;;1.30;;
19364;SDS011;9818;48.382;10.850;2024-01-15T12:10:49;2.40;;;1.37;;
19364;SDS011;9818;48.382;10.850;2024-01-15T12:13:18;2.70;;;1.33;;
19364;SDS011;9818;48.382;10.850;2024-01-15T12:15:48;2.27;;;1.20;;
19364;SDS011;9818;48.382;10.850;2024-01-15T12:18:17;2.30;;;1.20;;
19364;SDS011;9818;48.382;10.850;2024-01-15T12:20:49;2.83;;;1.30;;
19364;SDS011;9818;48.382;10.850;2024-01-15T12:23:18;2.90;;;1.20;;
19364;SDS011;9818;48.382;10.850;2024-01-15T12:25:47;3.00;;;1.40;;
19364;SDS011;9818;48.382;10.850;2024-01-15T12:28:16;2.63;;;1.20;;
19364;SDS011;9818;48.382;10.850;2024-01-15T12:30:46;2.87;;;1.30;;
19364;SDS011;9818;48.382;10.850;2024-01-15T12:33:17;6.77;;;1.50;;
19364;SDS011;9818;48.382;10.850;2024-01-15T12:35:49;2.50;;;1.10;;
19364;SDS011;9818;48.382;10.850;2024-01-15T12:38:21;3.03;;;0.97;;
19364;SDS011;9818;48.382;10.850;2024-01-15T12:40:50;1.53;;;1.07;;
19364;SDS011;9818;48.382;10.850;2024-01-15T12:43:19;2.33;;;1.20;;
19364;SDS011;9818;48.382;10.850;2024-01-15T12:45:48;1.60;;;1.20;;
19364;SDS011;9818;48.382;10.850;2024-01-15T12:48:18;2.07;;;0.80;;
19364;SDS011;9818;48.382;10.850;2024-01-15T12:50:51;2.43;;;1.03;;
19364;SDS011;9818;48.382;10.850;2024-01-15T12:53:20;4.83;;;1.30;;
19364;SDS011;9818;48.382;10.850;2024-01-15T12:55:49;3.40;;;1.20;;
19364;SDS011;9818;48.382;10.850;2024-01-15T12:58:18;2.50;;;1.20;;
19364;SDS011;9818;48.382;10.850;2024-01-15T13:00:47;1.70;;;1.00;;
19364;SDS011;9818;48.382;10.850;2024-01-15T13:03:15;1.67;;;1.10;;
19364;SDS011;9818;48.382;10.850;2024-01-15T13:05:44;1.97;;;1.17;;
19364;SDS011;9818;48.382;10.850;2024-01-15T13:08:16;1.00;;;0.93;;
19364;SDS011;9818;48.382;10.850;2024-01-15T13:10:45;1.83;;;1.00;;
19364;SDS011;9818;48.382;10.850;2024-01-15T13:13:14;0.90;;;0.90;;
19364;SDS011;9818;48.382;10.850;2024-01-15T13:15:42;2.10;;;1.20;;
19364;SDS011;9818;48.382;10.850;2024-01-15T13:18:11;2.93;;;1.00;;
19364;SDS011;9818;48.382;10.850;2024-01-15T13:20:40;1.13;;;1.00;;
19364;SDS011;9818;48.382;10.850;2024-01-15T13:23:10;2.47;;;1.20;;
19364;SDS011;9818;48.382;10.850;2024-01-15T13:25:42;1.50;;;1.10;;
19364;SDS011;9818;48.382;10.850;2024-01-15T13:28:10;1.40;;;0.90;;
19364;SDS011;9818;48.382;10.850;2024-01-15T13:30:40;1.40;;;0.90;;
19364;SDS011;9818;48.382;10.850;2024-01-15T13:33:08;2.27;;;1.10;;
19364;SDS011;9818;48.382;10.850;2024-01-15T13:35:38;1.33;;;1.00;;
19364;SDS011;9818;48.382;10.850;2024-01-15T13:38:07;2.40;;;1.27;;
19364;SDS011;9818;48.382;10.850;2024-01-15T13:40:36;2.30;;;1.07;;
19364;SDS011;9818;48.382;10.850;2024-01-15T13:43:07;1.50;;;0.93;;
19364;SDS011;9818;48.382;10.850;2024-01-15T13:45:36;2.43;;;0.83;;
19364;SDS011;9818;48.382;10.850;2024-01-15T13:48:05;2.90;;;0.97;;
19364;SDS011;9818;48.382;10.850;2024-01-15T13:50:34;3.67;;;0.97;;
19364;SDS011;9818;48.382;10.850;2024-01-15T13:53:03;1.53;;;0.90;;
19364;SDS011;9818;48.382;10.850;2024-01-15T13:55:34;1.60;;;0.90;;
19364;SDS011;9818;48.382;10.850;2024-01-15T13:58:03;1.63;;;0.90;;
19364;SDS011;9818;48.382;10.850;2024-01-15T14:00:34;1.53;;;0.90;;
19364;SDS011;9818;48.382;10.850;2024-01-15T14:03:04;0.90;;;0.90;;
19364;SDS011;9818;48.382;10.850;2024-01-15T14:05:33;1.13;;;0.83;;
19364;SDS011;9818;48.382;10.850;2024-01-15T14:08:02;1.10;;;0.93;;
19364;SDS011;9818;48.382;10.850;2024-01-15T14:10:31;0.87;;;0.80;;
19364;SDS011;9818;48.382;10.850;2024-01-15T14:12:59;2.20;;;1.20;;
19364;SDS011;9818;48.382;10.850;2024-01-15T14:15:28;0.90;;;0.80;;
19364;SDS011;9818;48.382;10.850;2024-01-15T14:18:00;1.10;;;0.90;;
19364;SDS011;9818;48.382;10.850;2024-01-15T14:20:29;0.90;;;0.80;;
19364;SDS011;9818;48.382;10.850;2024-01-15T14:22:58;1.00;;;0.90;;
19364;SDS011;9818;48.382;10.850;2024-01-15T14:25:26;1.40;;;1.00;;
19364;SDS011;9818;48.382;10.850;2024-01-15T14:27:55;0.90;;;0.70;;
19364;SDS011;9818;48.382;10.850;2024-01-15T14:30:24;2.70;;;1.00;;
19364;SDS011;9818;48.382;10.850;2024-01-15T14:32:52;3.13;;;0.90;;
19364;SDS011;9818;48.382;10.850;2024-01-15T14:35:24;3.60;;;1.10;;
19364;SDS011;9818;48.382;10.850;2024-01-15T14:37:52;0.93;;;0.87;;
19364;SDS011;9818;48.382;10.850;2024-01-15T14:40:23;1.83;;;1.20;;
19364;SDS011;9818;48.382;10.850;2024-01-15T14:42:52;7.63;;;2.03;;
19364;SDS011;9818;48.382;10.850;2024-01-15T14:45:21;10.83;;;2.20;;
19364;SDS011;9818;48.382;10.850;2024-01-15T14:47:52;26.67;;;4.47;;
19364;SDS011;9818;48.382;10.850;2024-01-15T14:50:24;16.20;;;3.10;;
19364;SDS011;9818;48.382;10.850;2024-01-15T14:52:53;14.17;;;3.20;;
19364;SDS011;9818;48.382;10.850;2024-01-15T14:55:22;17.07;;;2.87;;
19364;SDS011;9818;48.382;10.850;2024-01-15T14:57:51;13.60;;;3.23;;
19364;SDS011;9818;48.382;10.850;2024-01-15T15:00:18;17.50;;;3.40;;
19364;SDS011;9818;48.382;10.850;2024-01-15T15:02:47;17.87;;;3.07;;